createdAt,value
2022-12-25T00:00:54.677Z,17.30
2022-12-25T00:03:01.894Z,17.23
2022-12-25T00:05:09.395Z,18.23
2022-12-25T00:07:16.417Z,17.83
2022-12-25T00:09:24.881Z,17.70
2022-12-25T00:11:32.216Z,16.42
2022-12-25T00:13:39.209Z,17.42
2022-12-25T00:15:46.462Z,16.88
2022-12-25T00:17:53.308Z,17.98
2022-12-25T00:20:00.379Z,17.27
2022-12-25T00:22:07.200Z,15.90
2022-12-25T00:24:14.435Z,17.55
2022-12-25T00:26:23.050Z,18.27
2022-12-25T00:28:30.128Z,19.15
2022-12-25T00:30:36.833Z,19.88
2022-12-25T00:32:44.122Z,20.60
2022-12-25T00:34:52.092Z,19.13
2022-12-25T00:36:59.263Z,19.48
2022-12-25T00:39:06.187Z,19.83
2022-12-25T00:41:15.215Z,19.27
2022-12-25T00:43:24.090Z,18.63
2022-12-25T00:45:31.343Z,19.10
2022-12-25T00:47:38.250Z,19.17
2022-12-25T00:49:45.526Z,20.05
2022-12-25T00:51:53.065Z,20.13
2022-12-25T00:54:00.066Z,21.20
2022-12-25T00:56:09.679Z,21.30
2022-12-25T00:58:16.509Z,21.95
2022-12-25T01:00:25.536Z,21.10
2022-12-25T01:02:32.543Z,22.15
2022-12-25T01:04:39.738Z,20.98
2022-12-25T01:06:46.570Z,20.33
2022-12-25T01:09:10.437Z,20.38
2022-12-25T01:11:17.257Z,20.38
2022-12-25T01:13:24.491Z,19.90
2022-12-25T01:15:33.059Z,18.27
2022-12-25T01:17:40.148Z,18.35
2022-12-25T01:19:47.060Z,18.23
2022-12-25T01:21:54.452Z,18.27
2022-12-25T01:24:01.529Z,18.10
2022-12-25T01:26:08.755Z,18.13
2022-12-25T01:28:15.581Z,18.92
2022-12-25T01:30:22.862Z,18.20
2022-12-25T01:32:31.479Z,19.38
2022-12-25T01:34:38.608Z,17.25
2022-12-25T01:36:45.435Z,18.98
2022-12-25T01:38:52.681Z,15.55
2022-12-25T01:40:59.385Z,21.60
2022-12-25T01:43:07.396Z,17.25
2022-12-25T01:45:39.481Z,14.77
2022-12-25T01:49:55.232Z,14.48
2022-12-25T01:52:05.927Z,13.40
2022-12-25T01:54:17.039Z,14.23
2022-12-25T01:56:24.063Z,14.55
2022-12-25T01:58:31.451Z,13.20
2022-12-25T02:00:39.200Z,13.23
2022-12-25T02:02:48.766Z,13.63
2022-12-25T02:05:00.881Z,12.65
2022-12-25T02:07:07.195Z,13.95
2022-12-25T02:09:14.317Z,14.23
2022-12-25T02:11:34.660Z,13.48
2022-12-25T02:13:41.536Z,12.75
2022-12-25T02:15:57.317Z,11.80
2022-12-25T02:18:12.425Z,12.40
2022-12-25T02:21:06.263Z,11.13
2022-12-25T02:23:53.824Z,10.18
2022-12-25T02:26:14.794Z,10.18
2022-12-25T02:28:28.987Z,10.55
2022-12-25T02:30:42.057Z,11.55
2022-12-25T02:33:16.375Z,13.25
2022-12-25T02:35:31.678Z,13.63
2022-12-25T02:37:43.487Z,14.10
2022-12-25T02:40:00.320Z,14.23
2022-12-25T02:42:10.394Z,13.73
2022-12-25T02:44:39.118Z,12.77
2022-12-25T02:47:03.772Z,12.90
2022-12-25T02:49:31.448Z,13.50
2022-12-25T02:51:59.622Z,11.82
2022-12-25T02:54:42.630Z,12.00
2022-12-25T02:57:08.503Z,9.68
2022-12-25T02:59:36.214Z,8.23
2022-12-25T03:02:01.037Z,8.57
2022-12-25T03:04:28.412Z,7.20
2022-12-25T03:06:47.666Z,6.63
2022-12-25T03:09:20.103Z,6.25
2022-12-25T03:11:34.919Z,7.15
2022-12-25T03:13:44.755Z,6.47
2022-12-25T03:16:10.375Z,7.00
2022-12-25T03:18:21.083Z,7.10
2022-12-25T03:20:45.568Z,7.55
2022-12-25T03:23:09.498Z,7.53
2022-12-25T03:25:33.919Z,7.53
2022-12-25T03:27:42.596Z,7.45
2022-12-25T03:30:06.014Z,8.77
2022-12-25T03:32:23.994Z,8.18
2022-12-25T03:34:54.777Z,8.68
2022-12-25T03:37:25.831Z,8.40
2022-12-25T03:39:58.655Z,7.82
2022-12-25T03:42:25.547Z,7.93
2022-12-25T03:44:57.253Z,8.30
2022-12-25T03:47:26.554Z,23.13
2022-12-25T03:49:56.979Z,10.40
2022-12-25T03:52:21.724Z,6.90
2022-12-25T03:54:48.084Z,7.30
2022-12-25T03:57:11.847Z,6.88
2022-12-25T03:59:39.539Z,6.80
2022-12-25T04:02:03.776Z,6.47
2022-12-25T04:04:35.781Z,7.68
2022-12-25T04:07:00.943Z,7.88
2022-12-25T04:09:24.501Z,5.90
2022-12-25T04:11:47.760Z,6.47
2022-12-25T04:14:11.019Z,6.10
2022-12-25T04:16:34.786Z,5.80
2022-12-25T04:18:58.098Z,6.57
2022-12-25T04:21:21.566Z,5.65
2022-12-25T04:23:46.816Z,6.22
2022-12-25T04:26:10.595Z,6.18
2022-12-25T04:28:48.340Z,6.85
2022-12-25T04:31:12.089Z,5.68
2022-12-25T04:33:35.369Z,5.93
2022-12-25T04:35:58.832Z,5.35
2022-12-25T04:38:05.701Z,5.78
2022-12-25T04:40:15.443Z,5.60
2022-12-25T04:42:22.424Z,6.38
2022-12-25T04:44:29.650Z,6.80
2022-12-25T04:46:36.447Z,6.35
2022-12-25T04:48:43.489Z,7.00
2022-12-25T04:50:48.894Z,6.90
2022-12-25T04:52:56.023Z,6.60
2022-12-25T04:55:02.853Z,6.38
2022-12-25T04:57:11.729Z,6.43
2022-12-25T04:59:18.648Z,6.85
2022-12-25T05:01:25.950Z,6.18
2022-12-25T05:03:33.491Z,6.10
2022-12-25T05:05:43.388Z,6.63
2022-12-25T05:07:50.082Z,6.25
2022-12-25T05:09:57.236Z,8.43
2022-12-25T05:12:04.000Z,6.88
2022-12-25T05:14:12.856Z,7.28
2022-12-25T05:16:21.717Z,7.70
2022-12-25T05:18:28.556Z,7.70
2022-12-25T05:20:39.862Z,8.07
2022-12-25T05:22:47.268Z,7.35
2022-12-25T05:24:54.192Z,6.70
2022-12-25T05:27:01.075Z,6.55
2022-12-25T05:29:08.099Z,6.53
2022-12-25T05:31:16.796Z,6.40
2022-12-25T05:33:23.945Z,6.43
2022-12-25T05:35:30.773Z,6.72
2022-12-25T05:37:37.846Z,6.25
2022-12-25T05:39:44.554Z,5.90
2022-12-25T05:41:51.858Z,5.70
2022-12-25T05:43:58.672Z,5.57
2022-12-25T05:46:09.783Z,5.95
2022-12-25T05:48:18.359Z,5.45
2022-12-25T05:50:25.336Z,5.47
2022-12-25T05:52:43.577Z,5.05
2022-12-25T05:54:50.604Z,5.00
2022-12-25T05:56:57.534Z,5.47
2022-12-25T05:59:04.464Z,5.18
2022-12-25T06:01:16.436Z,5.25
2022-12-25T06:03:25.334Z,4.85
2022-12-25T06:05:32.270Z,4.50
2022-12-25T06:07:39.223Z,5.07
2022-12-25T06:09:45.994Z,5.18
2022-12-25T06:11:53.128Z,6.28
2022-12-25T06:13:59.949Z,6.80
2022-12-25T06:16:08.138Z,6.22
2022-12-25T06:18:15.001Z,5.68
2022-12-25T06:20:24.209Z,5.25
2022-12-25T06:22:32.933Z,5.00
2022-12-25T06:24:40.432Z,4.85
2022-12-25T06:26:47.236Z,4.60
2022-12-25T06:28:54.425Z,4.90
2022-12-25T06:31:01.446Z,4.32
2022-12-25T06:33:08.592Z,3.95
2022-12-25T06:35:15.660Z,4.30
2022-12-25T06:37:24.228Z,4.78
2022-12-25T06:39:31.408Z,4.70
2022-12-25T06:41:38.735Z,5.32
2022-12-25T06:43:45.668Z,5.55
2022-12-25T06:45:54.112Z,5.45
2022-12-25T06:48:00.953Z,6.15
2022-12-25T06:50:09.008Z,5.63
2022-12-25T06:52:15.872Z,5.18
2022-12-25T06:54:24.798Z,4.70
2022-12-25T06:56:32.037Z,4.72
2022-12-25T06:58:39.874Z,5.00
2022-12-25T07:00:46.689Z,5.65
2022-12-25T07:02:54.165Z,4.55
2022-12-25T07:05:01.064Z,4.22
2022-12-25T07:07:09.663Z,4.30
2022-12-25T07:09:16.558Z,4.47
2022-12-25T07:11:25.317Z,4.45
2022-12-25T07:13:32.404Z,4.40
2022-12-25T07:15:39.599Z,4.22
2022-12-25T07:17:46.403Z,4.45
2022-12-25T07:19:53.840Z,3.78
2022-12-25T07:22:01.079Z,4.32
2022-12-25T07:24:08.621Z,4.20
2022-12-25T07:26:16.103Z,4.38
2022-12-25T07:28:24.731Z,4.55
2022-12-25T07:30:31.490Z,4.57
2022-12-25T07:32:38.567Z,3.95
2022-12-25T07:34:45.445Z,3.90
2022-12-25T07:36:52.522Z,4.20
2022-12-25T07:38:59.652Z,3.97
2022-12-25T07:41:10.691Z,3.90
2022-12-25T07:43:17.453Z,4.38
2022-12-25T07:45:26.756Z,3.97
2022-12-25T07:47:33.499Z,4.85
2022-12-25T07:49:40.488Z,4.40
2022-12-25T07:51:47.262Z,4.70
2022-12-25T07:53:54.379Z,4.72
2022-12-25T07:56:02.801Z,4.20
2022-12-25T07:58:09.866Z,4.82
2022-12-25T08:00:17.766Z,4.10
2022-12-25T08:02:29.774Z,4.03
2022-12-25T08:06:43.103Z,4.10
2022-12-25T08:08:50.181Z,4.78
2022-12-25T08:10:57.258Z,4.47
2022-12-25T08:13:07.683Z,4.18
2022-12-25T08:15:18.076Z,4.55
2022-12-25T08:17:26.943Z,5.43
2022-12-25T08:19:33.922Z,4.80
2022-12-25T08:21:41.570Z,5.35
2022-12-25T08:23:49.667Z,4.97
2022-12-25T08:26:00.365Z,6.05
2022-12-25T08:28:11.253Z,5.03
2022-12-25T08:30:18.739Z,5.38
2022-12-25T08:32:27.147Z,4.90
2022-12-25T08:34:34.329Z,5.18
2022-12-25T08:36:42.535Z,5.32
2022-12-25T08:38:49.975Z,4.40
2022-12-25T08:40:56.846Z,5.78
2022-12-25T08:43:03.881Z,5.70
2022-12-25T08:45:12.564Z,5.25
2022-12-25T08:47:19.729Z,5.15
2022-12-25T08:49:30.180Z,4.97
2022-12-25T08:51:38.249Z,5.32
2022-12-25T08:53:45.165Z,4.88
2022-12-25T08:55:52.084Z,4.57
2022-12-25T08:57:58.861Z,4.80
2022-12-25T09:00:06.440Z,4.50
2022-12-25T09:02:14.972Z,5.07
2022-12-25T09:04:22.295Z,4.75
2022-12-25T09:06:30.859Z,5.10
2022-12-25T09:08:44.010Z,6.30
2022-12-25T09:10:54.796Z,5.60
2022-12-25T09:13:02.030Z,6.05
2022-12-25T09:15:09.811Z,5.60
2022-12-25T09:17:16.802Z,5.57
2022-12-25T09:19:23.626Z,5.28
2022-12-25T09:21:32.447Z,6.10
2022-12-25T09:23:39.883Z,5.88
2022-12-25T09:25:46.706Z,5.43
2022-12-25T09:27:53.580Z,5.38
2022-12-25T09:30:01.175Z,5.65
2022-12-25T09:32:08.866Z,34.95
2022-12-25T09:34:19.002Z,103.32
2022-12-25T09:36:26.607Z,36.53
2022-12-25T09:38:35.929Z,16.38
2022-12-25T09:40:43.125Z,9.50
2022-12-25T09:42:51.174Z,5.82
2022-12-25T09:45:00.966Z,5.53
2022-12-25T09:47:11.065Z,5.65
2022-12-25T09:49:23.577Z,5.15
2022-12-25T09:51:36.387Z,5.18
2022-12-25T09:53:49.098Z,6.50
2022-12-25T09:56:02.781Z,6.82
2022-12-25T09:58:15.339Z,6.38
2022-12-25T10:00:24.622Z,7.38
2022-12-25T10:03:04.271Z,7.68
2022-12-25T10:05:35.009Z,7.95
2022-12-25T10:07:48.681Z,7.68
2022-12-25T10:10:12.663Z,8.30
2022-12-25T10:12:32.644Z,7.03
2022-12-25T10:15:03.423Z,7.07
2022-12-25T10:17:29.345Z,6.60
2022-12-25T10:19:50.759Z,7.43
2022-12-25T10:22:02.038Z,7.18
2022-12-25T10:24:33.543Z,6.47
2022-12-25T10:26:42.410Z,6.38
2022-12-25T10:28:58.806Z,6.15
2022-12-25T10:31:17.907Z,6.18
2022-12-25T10:33:24.843Z,6.05
2022-12-25T10:35:33.919Z,7.45
2022-12-25T10:37:41.001Z,8.35
2022-12-25T10:39:48.192Z,7.63
2022-12-25T10:42:22.499Z,6.43
2022-12-25T10:44:29.629Z,6.22
2022-12-25T10:46:36.879Z,6.57
2022-12-25T10:48:46.808Z,6.18
2022-12-25T10:50:54.607Z,6.22
2022-12-25T10:53:06.605Z,6.55
2022-12-25T10:55:28.144Z,6.88
2022-12-25T10:57:48.976Z,6.45
2022-12-25T10:59:57.798Z,6.80
2022-12-25T11:02:16.319Z,8.10
2022-12-25T11:04:24.903Z,8.63
2022-12-25T11:06:33.929Z,7.88
2022-12-25T11:08:40.851Z,8.73
2022-12-25T11:10:54.740Z,8.60
2022-12-25T11:13:04.588Z,10.50
2022-12-25T11:15:41.593Z,17.80
2022-12-25T11:17:52.692Z,23.33
2022-12-25T11:20:01.592Z,20.92
2022-12-25T11:22:19.858Z,18.90
2022-12-25T11:24:29.596Z,13.50
2022-12-25T11:26:49.062Z,14.27
2022-12-25T11:28:58.649Z,13.18
2022-12-25T11:31:10.966Z,12.70
2022-12-25T11:33:19.162Z,11.40
2022-12-25T11:35:31.054Z,11.10
2022-12-25T11:37:45.206Z,11.90
2022-12-25T11:39:52.019Z,10.02
2022-12-25T11:42:03.395Z,9.13
2022-12-25T11:44:20.872Z,10.45
2022-12-25T11:46:34.422Z,10.63
2022-12-25T11:48:46.599Z,9.77
2022-12-25T11:50:58.495Z,10.32
2022-12-25T11:55:21.253Z,10.40
2022-12-25T11:57:31.124Z,11.18
2022-12-25T11:59:41.810Z,10.18
2022-12-25T12:01:53.802Z,10.20
2022-12-25T12:06:12.015Z,10.68
2022-12-25T12:08:18.784Z,10.43
2022-12-25T12:10:43.627Z,12.55
2022-12-25T12:12:56.797Z,12.75
2022-12-25T12:15:15.530Z,12.85
2022-12-25T12:17:24.328Z,13.88
2022-12-25T12:19:35.698Z,12.93
2022-12-25T12:21:45.089Z,12.87
2022-12-25T12:23:58.105Z,13.43
2022-12-25T12:26:05.652Z,13.45
2022-12-25T12:28:24.864Z,15.02
2022-12-25T12:30:33.978Z,15.13
2022-12-25T12:32:46.324Z,14.98
2022-12-25T12:37:04.762Z,16.83
2022-12-25T12:39:23.548Z,17.30
2022-12-25T12:41:48.033Z,17.50
2022-12-25T12:44:00.388Z,15.48
2022-12-25T12:46:11.506Z,16.05
2022-12-25T12:48:28.934Z,16.75
2022-12-25T12:50:38.827Z,16.17
2022-12-25T12:52:45.856Z,17.38
2022-12-25T12:55:02.275Z,16.90
2022-12-25T12:57:10.358Z,17.00
2022-12-25T12:59:17.333Z,16.50
2022-12-25T13:01:44.050Z,16.42
2022-12-25T13:04:17.317Z,16.52
2022-12-25T13:06:31.568Z,17.10
2022-12-25T13:08:51.101Z,16.80
2022-12-25T13:11:13.685Z,17.67
2022-12-25T13:13:24.961Z,19.27
2022-12-25T13:15:35.169Z,20.75
2022-12-25T13:17:49.096Z,19.73
2022-12-25T13:20:00.298Z,19.63
2022-12-25T13:22:08.173Z,21.42
2022-12-25T13:24:24.056Z,18.88
2022-12-25T13:26:31.655Z,19.05
2022-12-25T13:28:39.908Z,18.23
2022-12-25T13:30:48.112Z,20.08
2022-12-25T13:32:55.354Z,21.15
2022-12-25T13:35:04.165Z,20.15
2022-12-25T13:37:13.292Z,20.25
2022-12-25T13:39:21.292Z,21.60
2022-12-25T13:41:46.956Z,22.20
2022-12-25T13:43:53.779Z,22.35
2022-12-25T13:46:00.976Z,23.23
2022-12-25T13:48:17.972Z,23.63
2022-12-25T13:50:28.535Z,22.10
2022-12-25T13:52:39.087Z,24.35
2022-12-25T13:54:57.502Z,23.83
2022-12-25T13:57:04.931Z,25.80
2022-12-25T13:59:20.146Z,27.55
2022-12-25T14:01:27.016Z,27.63
2022-12-25T14:03:38.733Z,28.92
2022-12-25T14:05:47.169Z,29.52
2022-12-25T14:07:55.890Z,29.63
2022-12-25T14:10:05.372Z,30.25
2022-12-25T14:12:18.966Z,30.27
2022-12-25T14:14:28.191Z,32.30
2022-12-25T14:16:35.449Z,31.25
2022-12-25T14:18:52.842Z,27.40
2022-12-25T14:21:04.447Z,28.77
2022-12-25T14:23:17.905Z,28.30
2022-12-25T14:25:26.263Z,27.50
2022-12-25T14:27:33.903Z,28.15
2022-12-25T14:29:42.881Z,26.85
2022-12-25T14:31:50.983Z,26.58
2022-12-25T14:33:57.858Z,26.85
2022-12-25T14:36:07.655Z,26.60
2022-12-25T14:38:23.940Z,25.23
2022-12-25T14:40:33.100Z,24.27
2022-12-25T14:42:40.411Z,24.27
2022-12-25T14:44:47.331Z,24.20
2022-12-25T14:46:54.655Z,24.30
2022-12-25T14:49:06.404Z,23.02
2022-12-25T14:53:31.316Z,23.00
2022-12-25T14:57:50.444Z,21.65
2022-12-25T15:00:07.453Z,23.48
2022-12-25T15:02:21.988Z,22.23
2022-12-25T15:04:31.493Z,22.80
2022-12-25T15:06:42.836Z,22.52
2022-12-25T15:08:59.986Z,22.77
2022-12-25T15:11:07.530Z,23.33
2022-12-25T15:13:15.643Z,20.83
2022-12-25T15:15:22.452Z,23.25
2022-12-25T15:17:32.863Z,22.60
2022-12-25T15:19:41.013Z,22.20
2022-12-25T15:21:49.936Z,22.40
2022-12-25T15:23:57.327Z,21.58
2022-12-25T15:26:04.711Z,21.27
2022-12-25T15:28:14.004Z,21.63
2022-12-25T15:30:22.359Z,22.15
2022-12-25T15:32:29.172Z,21.10
2022-12-25T15:34:36.303Z,20.65
2022-12-25T15:36:43.126Z,19.63
2022-12-25T15:38:52.001Z,20.35
2022-12-25T15:40:58.819Z,20.27
2022-12-25T15:43:11.493Z,21.38
2022-12-25T15:45:31.358Z,20.00
2022-12-25T15:47:38.429Z,20.30
2022-12-25T15:49:45.987Z,19.67
2022-12-25T15:51:53.097Z,20.05
2022-12-25T15:54:01.774Z,20.58
2022-12-25T15:56:10.076Z,22.70
2022-12-25T15:58:17.681Z,24.33
2022-12-25T16:00:26.911Z,23.00
2022-12-25T16:02:33.834Z,22.63
2022-12-25T16:04:43.416Z,20.92
2022-12-25T16:06:50.519Z,21.50
2022-12-25T16:08:57.628Z,22.80
2022-12-25T16:11:06.146Z,21.58
2022-12-25T16:13:13.252Z,21.30
2022-12-25T16:15:20.094Z,22.08
2022-12-25T16:17:27.331Z,21.80
2022-12-25T16:19:34.096Z,21.10
2022-12-25T16:21:47.235Z,22.27
2022-12-25T16:23:54.656Z,22.05
2022-12-25T16:26:01.632Z,20.73
2022-12-25T16:28:11.421Z,21.20
2022-12-25T16:30:20.895Z,20.60
2022-12-25T16:32:27.870Z,19.30
2022-12-25T16:34:34.648Z,19.20
2022-12-25T16:36:41.583Z,18.65
2022-12-25T16:38:48.194Z,19.02
2022-12-25T16:40:59.686Z,19.08
2022-12-25T16:43:06.499Z,19.88
2022-12-25T16:45:15.849Z,19.20
2022-12-25T16:47:23.124Z,19.17
2022-12-25T16:49:30.258Z,18.42
2022-12-25T16:51:37.133Z,18.15
2022-12-25T16:53:44.502Z,18.58
2022-12-25T16:55:51.277Z,16.88
2022-12-25T16:57:58.319Z,18.65
2022-12-25T17:00:05.121Z,18.77
2022-12-25T17:02:17.930Z,17.10
2022-12-25T17:04:24.629Z,16.90
2022-12-25T17:06:31.757Z,16.55
2022-12-25T17:08:38.627Z,17.67
2022-12-25T17:10:45.861Z,16.20
2022-12-25T17:12:52.637Z,17.17
2022-12-25T17:14:59.814Z,16.42
2022-12-25T17:17:06.790Z,15.75
2022-12-25T17:19:22.077Z,16.95
2022-12-25T17:21:29.189Z,16.45
2022-12-25T17:23:36.169Z,17.40
2022-12-25T17:25:43.302Z,16.50
2022-12-25T17:27:53.553Z,15.35
2022-12-25T17:30:01.451Z,15.82
2022-12-25T17:32:08.994Z,16.08
2022-12-25T17:34:17.658Z,16.38
2022-12-25T17:36:25.557Z,16.88
2022-12-25T17:38:33.876Z,15.45
2022-12-25T17:40:41.002Z,16.60
2022-12-25T17:42:48.077Z,14.77
2022-12-25T17:44:55.314Z,15.02
2022-12-25T17:47:02.161Z,15.05
2022-12-25T17:49:09.721Z,14.10
2022-12-25T17:51:19.769Z,14.30
2022-12-25T17:53:26.849Z,14.90
2022-12-25T17:55:35.470Z,14.65
2022-12-25T17:57:42.492Z,15.75
2022-12-25T17:59:49.315Z,14.25
2022-12-25T18:01:56.581Z,14.43
2022-12-25T18:04:04.387Z,14.30
2022-12-25T18:06:14.307Z,14.65
2022-12-25T18:08:22.700Z,14.88
2022-12-25T18:10:29.780Z,13.27
2022-12-25T18:12:36.611Z,14.00
2022-12-25T18:14:43.781Z,14.23
2022-12-25T18:16:50.960Z,14.18
2022-12-25T18:18:58.199Z,13.98
2022-12-25T18:21:05.386Z,14.68
2022-12-25T18:23:12.461Z,13.80
2022-12-25T18:25:21.023Z,13.48
2022-12-25T18:27:28.051Z,14.32
2022-12-25T18:29:34.831Z,15.38
2022-12-25T18:31:42.080Z,15.23
2022-12-25T18:33:49.285Z,14.23
2022-12-25T18:36:03.547Z,14.93
2022-12-25T18:38:12.056Z,15.85
2022-12-25T18:40:20.971Z,16.02
2022-12-25T18:42:42.589Z,16.00
2022-12-25T18:46:55.981Z,15.63
2022-12-25T18:49:03.010Z,16.17
2022-12-25T18:51:12.184Z,17.88
2022-12-25T18:53:20.344Z,15.70
2022-12-25T18:55:28.811Z,14.50
2022-12-25T18:57:36.394Z,13.98
2022-12-25T18:59:43.320Z,13.82
2022-12-25T19:01:50.500Z,13.20
2022-12-25T19:04:04.050Z,14.82
2022-12-25T19:06:12.442Z,14.45
2022-12-25T19:08:19.315Z,14.23
2022-12-25T19:10:27.931Z,13.45
2022-12-25T19:12:34.756Z,14.55
2022-12-25T19:14:47.711Z,14.77
2022-12-25T19:16:55.248Z,13.40
2022-12-25T19:19:02.596Z,13.68
2022-12-25T19:21:11.109Z,13.50
2022-12-25T19:23:18.188Z,14.30
2022-12-25T19:25:25.427Z,14.70
2022-12-25T19:27:34.343Z,14.35
2022-12-25T19:29:41.231Z,14.48
2022-12-25T19:31:48.479Z,14.00
2022-12-25T19:33:55.325Z,14.43
2022-12-25T19:36:03.624Z,13.98
2022-12-25T19:38:10.560Z,14.30
2022-12-25T19:40:17.780Z,13.52
2022-12-25T19:42:24.562Z,14.02
2022-12-25T19:44:33.493Z,13.68
2022-12-25T19:46:43.175Z,14.00
2022-12-25T19:48:50.218Z,14.35
2022-12-25T19:50:57.595Z,14.45
2022-12-25T19:53:04.417Z,14.15
2022-12-25T19:55:12.158Z,13.98
2022-12-25T19:57:18.982Z,13.88
2022-12-25T19:59:26.066Z,14.80
2022-12-25T20:01:35.713Z,15.82
2022-12-25T20:03:46.177Z,15.30
2022-12-25T20:05:53.752Z,15.10
2022-12-25T20:08:00.827Z,17.08
2022-12-25T20:10:08.215Z,16.02
2022-12-25T20:12:17.341Z,16.40
2022-12-25T20:14:24.368Z,16.60
2022-12-25T20:16:31.739Z,16.15
2022-12-25T20:18:40.781Z,15.65
2022-12-25T20:20:48.473Z,15.63
2022-12-25T20:22:55.454Z,16.08
2022-12-25T20:25:04.987Z,15.35
2022-12-25T20:27:11.869Z,14.48
2022-12-25T20:29:18.949Z,16.20
2022-12-25T20:31:29.318Z,17.45
2022-12-25T20:33:39.462Z,16.85
2022-12-25T20:35:49.618Z,17.83
2022-12-25T20:37:56.588Z,16.85
2022-12-25T20:40:03.355Z,17.80
2022-12-25T20:42:10.733Z,15.75
2022-12-25T20:44:17.506Z,16.23
2022-12-25T20:46:24.855Z,14.63
2022-12-25T20:48:31.970Z,16.75
2022-12-25T20:50:40.946Z,16.05
2022-12-25T20:52:47.766Z,15.73
2022-12-25T20:54:54.899Z,17.10
2022-12-25T20:57:01.668Z,16.73
2022-12-25T20:59:08.697Z,17.55
2022-12-25T21:01:17.426Z,17.02
2022-12-25T21:03:24.778Z,16.75
2022-12-25T21:05:32.456Z,15.85
2022-12-25T21:07:41.621Z,17.27
2022-12-25T21:09:48.496Z,16.63
2022-12-25T21:11:55.474Z,17.10
2022-12-25T21:14:02.296Z,18.05
2022-12-25T21:16:10.958Z,16.65
2022-12-25T21:18:18.042Z,16.48
2022-12-25T21:20:25.121Z,17.13
2022-12-25T21:22:32.047Z,16.98
2022-12-25T21:24:40.970Z,17.15
2022-12-25T21:26:48.454Z,18.50
2022-12-25T21:28:58.302Z,18.98
2022-12-25T21:31:06.055Z,18.52
2022-12-25T21:33:32.227Z,17.10
2022-12-25T21:35:40.590Z,17.33
2022-12-25T21:37:47.558Z,17.40
2022-12-25T21:39:56.122Z,18.63
2022-12-25T21:42:05.461Z,17.83
2022-12-25T21:44:13.917Z,19.00
2022-12-25T21:46:20.999Z,18.70
2022-12-25T21:48:27.871Z,19.15
2022-12-25T21:50:51.183Z,19.98
2022-12-25T21:52:58.043Z,18.35
2022-12-25T21:55:06.623Z,19.70
2022-12-25T21:57:13.798Z,20.45
2022-12-25T21:59:22.615Z,19.77
2022-12-25T22:01:30.322Z,19.10
2022-12-25T22:03:37.291Z,18.63
2022-12-25T22:06:00.557Z,20.05
2022-12-25T22:08:08.086Z,19.90
2022-12-25T22:10:16.651Z,21.55
2022-12-25T22:12:40.629Z,21.92
2022-12-25T22:14:56.599Z,22.58
2022-12-25T22:17:20.895Z,23.55
2022-12-25T22:19:49.120Z,23.45
2022-12-25T22:21:56.148Z,23.00
2022-12-25T22:24:03.179Z,21.83
2022-12-25T22:26:17.284Z,23.02
2022-12-25T22:28:27.371Z,22.55
2022-12-25T22:30:34.450Z,23.10
2022-12-25T22:32:41.293Z,23.38
2022-12-25T22:34:48.352Z,22.02
2022-12-25T22:36:54.969Z,23.33
2022-12-25T22:39:02.052Z,24.05
2022-12-25T22:41:11.739Z,23.92
2022-12-25T22:43:18.820Z,22.83
2022-12-25T22:45:25.695Z,22.15
2022-12-25T22:47:32.760Z,23.80
2022-12-25T22:49:39.806Z,24.95
2022-12-25T22:51:47.293Z,24.33
2022-12-25T22:53:57.399Z,24.83
2022-12-25T22:56:07.182Z,24.85
2022-12-25T22:58:15.744Z,23.83
2022-12-25T23:00:22.927Z,24.33
2022-12-25T23:02:29.927Z,23.67
2022-12-25T23:04:36.982Z,22.17
2022-12-25T23:06:45.035Z,23.42
2022-12-25T23:08:52.371Z,23.65
2022-12-25T23:11:03.685Z,21.88
2022-12-25T23:13:28.595Z,23.65
2022-12-25T23:15:37.180Z,22.67
2022-12-25T23:18:00.576Z,24.45
2022-12-25T23:20:25.990Z,24.83
2022-12-25T23:23:04.452Z,23.67
2022-12-25T23:25:33.497Z,23.80
2022-12-25T23:27:40.311Z,26.33
2022-12-25T23:29:46.263Z,25.20
2022-12-25T23:31:55.340Z,26.20
2022-12-25T23:34:02.728Z,26.52
2022-12-25T23:36:10.289Z,25.75
2022-12-25T23:38:17.087Z,25.05
2022-12-25T23:40:24.348Z,24.83
2022-12-25T23:42:31.197Z,28.05
2022-12-25T23:44:38.375Z,27.50
2022-12-25T23:46:52.578Z,29.98
2022-12-25T23:49:02.210Z,30.40
2022-12-25T23:51:09.801Z,29.42
2022-12-25T23:53:16.829Z,27.40
2022-12-25T23:55:23.602Z,27.00
2022-12-25T23:57:30.787Z,29.02
2022-12-25T23:59:37.708Z,28.33
